sensor_id;sensor_type;location;lat;lon;timestamp;P1;durP1;ratioP1;P2;durP2;ratioP2
20177;SDS011;10248;51.218;20.866;2023-04-24T00:02:28;2.10;;;2.10;;
20177;SDS011;10248;51.218;20.866;2023-04-24T00:04:58;2.50;;;2.40;;
20177;SDS011;10248;51.218;20.866;2023-04-24T00:07:28;2.30;;;2.20;;
20177;SDS011;10248;51.218;20.866;2023-04-24T00:09:56;2.03;;;2.03;;
20177;SDS011;10248;51.218;20.866;2023-04-24T00:12:24;1.88;;;1.88;;
20177;SDS011;10248;51.218;20.866;2023-04-24T00:14:53;1.90;;;1.90;;
20177;SDS011;10248;51.218;20.866;2023-04-24T00:17:20;2.50;;;2.40;;
20177;SDS011;10248;51.218;20.866;2023-04-24T00:19:50;1.90;;;1.90;;
20177;SDS011;10248;51.218;20.866;2023-04-24T00:22:24;2.25;;;2.17;;
20177;SDS011;10248;51.218;20.866;2023-04-24T00:24:52;2.10;;;2.10;;
20177;SDS011;10248;51.218;20.866;2023-04-24T00:27:20;2.22;;;2.13;;
20177;SDS011;10248;51.218;20.866;2023-04-24T00:29:48;1.95;;;1.95;;
20177;SDS011;10248;51.218;20.866;2023-04-24T00:32:17;2.15;;;2.13;;
20177;SDS011;10248;51.218;20.866;2023-04-24T00:34:54;2.30;;;2.20;;
20177;SDS011;10248;51.218;20.866;2023-04-24T00:37:22;2.35;;;2.25;;
20177;SDS011;10248;51.218;20.866;2023-04-24T00:39:50;2.25;;;2.17;;
20177;SDS011;10248;51.218;20.866;2023-04-24T00:42:18;1.98;;;1.98;;
20177;SDS011;10248;51.218;20.866;2023-04-24T00:44:45;2.33;;;2.22;;
20177;SDS011;10248;51.218;20.866;2023-04-24T00:47:14;2.45;;;2.35;;
20177;SDS011;10248;51.218;20.866;2023-04-24T00:49:42;2.15;;;2.10;;
20177;SDS011;10248;51.218;20.866;2023-04-24T00:52:11;2.17;;;2.15;;
20177;SDS011;10248;51.218;20.866;2023-04-24T00:54:43;2.50;;;2.40;;
20177;SDS011;10248;51.218;20.866;2023-04-24T00:57:11;2.50;;;2.40;;
20177;SDS011;10248;51.218;20.866;2023-04-24T00:59:45;2.40;;;2.30;;
20177;SDS011;10248;51.218;20.866;2023-04-24T01:02:16;2.30;;;2.20;;
20177;SDS011;10248;51.218;20.866;2023-04-24T01:04:45;2.60;;;2.50;;
20177;SDS011;10248;51.218;20.866;2023-04-24T01:07:14;2.55;;;2.45;;
20177;SDS011;10248;51.218;20.866;2023-04-24T01:09:41;2.47;;;2.38;;
20177;SDS011;10248;51.218;20.866;2023-04-24T01:12:10;2.42;;;2.33;;
20177;SDS011;10248;51.218;20.866;2023-04-24T01:14:38;2.42;;;2.33;;
20177;SDS011;10248;51.218;20.866;2023-04-24T01:17:29;2.58;;;2.47;;
20177;SDS011;10248;51.218;20.866;2023-04-24T01:19:58;2.60;;;2.50;;
20177;SDS011;10248;51.218;20.866;2023-04-24T01:22:39;2.10;;;2.10;;
20177;SDS011;10248;51.218;20.866;2023-04-24T01:25:11;2.30;;;2.20;;
20177;SDS011;10248;51.218;20.866;2023-04-24T01:28:14;2.30;;;2.20;;
20177;SDS011;10248;51.218;20.866;2023-04-24T01:31:22;2.50;;;2.40;;
20177;SDS011;10248;51.218;20.866;2023-04-24T01:34:37;2.58;;;2.47;;
20177;SDS011;10248;51.218;20.866;2023-04-24T01:37:33;2.50;;;2.40;;
20177;SDS011;10248;51.218;20.866;2023-04-24T01:40:06;2.40;;;2.30;;
20177;SDS011;10248;51.218;20.866;2023-04-24T01:43:11;2.60;;;2.50;;
20177;SDS011;10248;51.218;20.866;2023-04-24T01:46:12;2.25;;;2.15;;
20177;SDS011;10248;51.218;20.866;2023-04-24T01:48:58;2.50;;;2.40;;
20177;SDS011;10248;51.218;20.866;2023-04-24T01:51:38;2.50;;;2.40;;
20177;SDS011;10248;51.218;20.866;2023-04-24T01:54:39;2.50;;;2.40;;
20177;SDS011;10248;51.218;20.866;2023-04-24T01:57:20;2.40;;;2.30;;
20177;SDS011;10248;51.218;20.866;2023-04-24T01:59:52;2.70;;;2.60;;
20177;SDS011;10248;51.218;20.866;2023-04-24T02:02:42;2.50;;;2.40;;
20177;SDS011;10248;51.218;20.866;2023-04-24T02:05:29;2.60;;;2.50;;
20177;SDS011;10248;51.218;20.866;2023-04-24T02:08:15;2.30;;;2.20;;
20177;SDS011;10248;51.218;20.866;2023-04-24T02:10:44;2.50;;;2.40;;
20177;SDS011;10248;51.218;20.866;2023-04-24T02:13:13;2.60;;;2.50;;
20177;SDS011;10248;51.218;20.866;2023-04-24T02:15:41;2.53;;;2.42;;
20177;SDS011;10248;51.218;20.866;2023-04-24T02:18:09;2.42;;;2.33;;
20177;SDS011;10248;51.218;20.866;2023-04-24T02:20:41;2.08;;;2.08;;
20177;SDS011;10248;51.218;20.866;2023-04-24T02:23:09;2.38;;;2.28;;
20177;SDS011;10248;51.218;20.866;2023-04-24T02:25:54;2.30;;;2.20;;
20177;SDS011;10248;51.218;20.866;2023-04-24T02:28:52;2.40;;;2.30;;
20177;SDS011;10248;51.218;20.866;2023-04-24T02:31:33;2.20;;;2.15;;
20177;SDS011;10248;51.218;20.866;2023-04-24T02:34:41;2.53;;;2.42;;
20177;SDS011;10248;51.218;20.866;2023-04-24T02:38:08;2.40;;;2.30;;
20177;SDS011;10248;51.218;20.866;2023-04-24T02:41:14;2.38;;;2.28;;
20177;SDS011;10248;51.218;20.866;2023-04-24T02:47:39;2.40;;;2.30;;
20177;SDS011;10248;51.218;20.866;2023-04-24T02:50:36;2.50;;;2.40;;
20177;SDS011;10248;51.218;20.866;2023-04-24T02:53:07;2.72;;;2.63;;
20177;SDS011;10248;51.218;20.866;2023-04-24T02:56:00;2.70;;;2.60;;
20177;SDS011;10248;51.218;20.866;2023-04-24T02:59:14;2.38;;;2.28;;
20177;SDS011;10248;51.218;20.866;2023-04-24T03:01:54;2.35;;;2.25;;
20177;SDS011;10248;51.218;20.866;2023-04-24T03:04:34;2.60;;;2.50;;
20177;SDS011;10248;51.218;20.866;2023-04-24T03:07:06;2.60;;;2.50;;
20177;SDS011;10248;51.218;20.866;2023-04-24T03:09:36;2.40;;;2.30;;
20177;SDS011;10248;51.218;20.866;2023-04-24T03:12:37;2.40;;;2.30;;
20177;SDS011;10248;51.218;20.866;2023-04-24T03:15:49;2.47;;;2.38;;
20177;SDS011;10248;51.218;20.866;2023-04-24T03:19:12;2.50;;;2.40;;
20177;SDS011;10248;51.218;20.866;2023-04-24T03:21:48;2.45;;;2.35;;
20177;SDS011;10248;51.218;20.866;2023-04-24T03:24:24;2.47;;;2.38;;
20177;SDS011;10248;51.218;20.866;2023-04-24T03:27:38;2.78;;;2.67;;
20177;SDS011;10248;51.218;20.866;2023-04-24T03:30:42;2.40;;;2.30;;
20177;SDS011;10248;51.218;20.866;2023-04-24T03:34:08;2.60;;;2.50;;
20177;SDS011;10248;51.218;20.866;2023-04-24T03:37:29;2.38;;;2.28;;
20177;SDS011;10248;51.218;20.866;2023-04-24T03:40:50;2.70;;;2.60;;
20177;SDS011;10248;51.218;20.866;2023-04-24T03:43:42;2.80;;;2.70;;
20177;SDS011;10248;51.218;20.866;2023-04-24T03:46:24;2.40;;;2.30;;
20177;SDS011;10248;51.218;20.866;2023-04-24T03:49:13;2.63;;;2.53;;
20177;SDS011;10248;51.218;20.866;2023-04-24T03:51:57;2.70;;;2.60;;
20177;SDS011;10248;51.218;20.866;2023-04-24T03:55:10;2.60;;;2.50;;
20177;SDS011;10248;51.218;20.866;2023-04-24T03:58:16;2.67;;;2.58;;
20177;SDS011;10248;51.218;20.866;2023-04-24T04:00:59;2.47;;;2.38;;
20177;SDS011;10248;51.218;20.866;2023-04-24T04:04:26;2.75;;;2.65;;
20177;SDS011;10248;51.218;20.866;2023-04-24T04:07:08;2.35;;;2.25;;
20177;SDS011;10248;51.218;20.866;2023-04-24T04:10:34;2.50;;;2.40;;
20177;SDS011;10248;51.218;20.866;2023-04-24T04:14:01;2.38;;;2.28;;
20177;SDS011;10248;51.218;20.866;2023-04-24T04:16:30;2.60;;;2.50;;
20177;SDS011;10248;51.218;20.866;2023-04-24T04:19:56;2.70;;;2.60;;
20177;SDS011;10248;51.218;20.866;2023-04-24T04:23:24;2.60;;;2.50;;
20177;SDS011;10248;51.218;20.866;2023-04-24T04:26:52;2.28;;;2.17;;
20177;SDS011;10248;51.218;20.866;2023-04-24T04:30:19;2.35;;;2.25;;
20177;SDS011;10248;51.218;20.866;2023-04-24T04:32:59;2.80;;;2.70;;
20177;SDS011;10248;51.218;20.866;2023-04-24T04:36:25;2.67;;;2.58;;
20177;SDS011;10248;51.218;20.866;2023-04-24T04:38:56;2.80;;;2.70;;
20177;SDS011;10248;51.218;20.866;2023-04-24T04:41:56;2.60;;;2.50;;
20177;SDS011;10248;51.218;20.866;2023-04-24T04:45:22;2.60;;;2.50;;
20177;SDS011;10248;51.218;20.866;2023-04-24T04:48:52;2.67;;;2.58;;
20177;SDS011;10248;51.218;20.866;2023-04-24T04:52:18;2.90;;;2.80;;
20177;SDS011;10248;51.218;20.866;2023-04-24T04:55:46;2.78;;;2.67;;
20177;SDS011;10248;51.218;20.866;2023-04-24T04:59:12;2.70;;;2.60;;
20177;SDS011;10248;51.218;20.866;2023-04-24T05:02:40;2.50;;;2.40;;
20177;SDS011;10248;51.218;20.866;2023-04-24T05:06:06;2.58;;;2.47;;
20177;SDS011;10248;51.218;20.866;2023-04-24T05:08:50;2.50;;;2.40;;
20177;SDS011;10248;51.218;20.866;2023-04-24T05:11:49;2.50;;;2.40;;
20177;SDS011;10248;51.218;20.866;2023-04-24T05:14:25;2.42;;;2.33;;
20177;SDS011;10248;51.218;20.866;2023-04-24T05:17:51;2.47;;;2.38;;
20177;SDS011;10248;51.218;20.866;2023-04-24T05:21:03;2.60;;;2.50;;
20177;SDS011;10248;51.218;20.866;2023-04-24T05:24:07;2.58;;;2.47;;
20177;SDS011;10248;51.218;20.866;2023-04-24T05:26:51;2.28;;;2.20;;
20177;SDS011;10248;51.218;20.866;2023-04-24T05:29:41;2.55;;;2.45;;
20177;SDS011;10248;51.218;20.866;2023-04-24T05:32:55;2.55;;;2.45;;
20177;SDS011;10248;51.218;20.866;2023-04-24T05:36:21;2.50;;;2.40;;
20177;SDS011;10248;51.218;20.866;2023-04-24T05:39:48;2.60;;;2.50;;
20177;SDS011;10248;51.218;20.866;2023-04-24T05:43:05;2.35;;;2.25;;
20177;SDS011;10248;51.218;20.866;2023-04-24T05:45:34;2.40;;;2.30;;
20177;SDS011;10248;51.218;20.866;2023-04-24T05:48:59;2.35;;;2.25;;
20177;SDS011;10248;51.218;20.866;2023-04-24T05:51:38;2.47;;;2.38;;
20177;SDS011;10248;51.218;20.866;2023-04-24T05:54:39;2.40;;;2.30;;
20177;SDS011;10248;51.218;20.866;2023-04-24T05:57:16;2.03;;;2.03;;
20177;SDS011;10248;51.218;20.866;2023-04-24T06:00:43;2.50;;;2.40;;
20177;SDS011;10248;51.218;20.866;2023-04-24T06:03:17;2.40;;;2.30;;
20177;SDS011;10248;51.218;20.866;2023-04-24T06:06:26;2.50;;;2.40;;
20177;SDS011;10248;51.218;20.866;2023-04-24T06:08:55;2.67;;;2.58;;
20177;SDS011;10248;51.218;20.866;2023-04-24T06:11:29;2.70;;;2.60;;
20177;SDS011;10248;51.218;20.866;2023-04-24T06:14:56;2.40;;;2.30;;
20177;SDS011;10248;51.218;20.866;2023-04-24T06:17:26;2.05;;;2.05;;
20177;SDS011;10248;51.218;20.866;2023-04-24T06:20:12;2.58;;;2.47;;
20177;SDS011;10248;51.218;20.866;2023-04-24T06:22:59;2.38;;;2.28;;
20177;SDS011;10248;51.218;20.866;2023-04-24T06:25:38;2.65;;;2.55;;
20177;SDS011;10248;51.218;20.866;2023-04-24T06:28:14;2.47;;;2.38;;
20177;SDS011;10248;51.218;20.866;2023-04-24T06:30:55;2.42;;;2.33;;
20177;SDS011;10248;51.218;20.866;2023-04-24T06:33:41;2.30;;;2.20;;
20177;SDS011;10248;51.218;20.866;2023-04-24T06:36:32;2.58;;;2.47;;
20177;SDS011;10248;51.218;20.866;2023-04-24T06:39:09;2.42;;;2.33;;
20177;SDS011;10248;51.218;20.866;2023-04-24T06:42:09;2.50;;;2.40;;
20177;SDS011;10248;51.218;20.866;2023-04-24T06:45:32;2.67;;;2.58;;
20177;SDS011;10248;51.218;20.866;2023-04-24T06:48:03;2.45;;;2.35;;
20177;SDS011;10248;51.218;20.866;2023-04-24T06:50:31;2.58;;;2.47;;
20177;SDS011;10248;51.218;20.866;2023-04-24T06:53:00;2.40;;;2.30;;
20177;SDS011;10248;51.218;20.866;2023-04-24T06:55:28;2.60;;;2.50;;
20177;SDS011;10248;51.218;20.866;2023-04-24T06:57:56;2.55;;;2.45;;
20177;SDS011;10248;51.218;20.866;2023-04-24T07:00:23;2.60;;;2.50;;
20177;SDS011;10248;51.218;20.866;2023-04-24T07:02:51;2.53;;;2.42;;
20177;SDS011;10248;51.218;20.866;2023-04-24T07:05:21;2.33;;;2.22;;
20177;SDS011;10248;51.218;20.866;2023-04-24T07:07:49;2.50;;;2.40;;
20177;SDS011;10248;51.218;20.866;2023-04-24T07:10:17;2.22;;;2.15;;
20177;SDS011;10248;51.218;20.866;2023-04-24T07:12:46;2.63;;;2.53;;
20177;SDS011;10248;51.218;20.866;2023-04-24T07:15:14;2.70;;;2.60;;
20177;SDS011;10248;51.218;20.866;2023-04-24T07:17:42;2.70;;;2.60;;
20177;SDS011;10248;51.218;20.866;2023-04-24T07:20:10;2.70;;;2.60;;
20177;SDS011;10248;51.218;20.866;2023-04-24T07:22:42;2.60;;;2.50;;
20177;SDS011;10248;51.218;20.866;2023-04-24T07:25:10;2.40;;;2.30;;
20177;SDS011;10248;51.218;20.866;2023-04-24T07:27:38;2.70;;;2.60;;
20177;SDS011;10248;51.218;20.866;2023-04-24T07:30:06;2.80;;;2.70;;
20177;SDS011;10248;51.218;20.866;2023-04-24T07:32:34;2.80;;;2.70;;
20177;SDS011;10248;51.218;20.866;2023-04-24T07:35:02;2.58;;;2.47;;
20177;SDS011;10248;51.218;20.866;2023-04-24T07:37:30;2.67;;;2.58;;
20177;SDS011;10248;51.218;20.866;2023-04-24T07:39:59;2.75;;;2.65;;
20177;SDS011;10248;51.218;20.866;2023-04-24T07:42:27;2.60;;;2.50;;
20177;SDS011;10248;51.218;20.866;2023-04-24T07:44:56;2.80;;;2.70;;
20177;SDS011;10248;51.218;20.866;2023-04-24T07:47:26;2.80;;;2.70;;
20177;SDS011;10248;51.218;20.866;2023-04-24T07:49:54;2.60;;;2.50;;
20177;SDS011;10248;51.218;20.866;2023-04-24T07:52:21;2.70;;;2.60;;
20177;SDS011;10248;51.218;20.866;2023-04-24T07:54:49;2.60;;;2.50;;
20177;SDS011;10248;51.218;20.866;2023-04-24T07:57:20;2.80;;;2.70;;
20177;SDS011;10248;51.218;20.866;2023-04-24T07:59:47;2.60;;;2.50;;
20177;SDS011;10248;51.218;20.866;2023-04-24T08:02:15;2.60;;;2.50;;
20177;SDS011;10248;51.218;20.866;2023-04-24T08:04:43;2.80;;;2.70;;
20177;SDS011;10248;51.218;20.866;2023-04-24T08:07:11;2.80;;;2.70;;
20177;SDS011;10248;51.218;20.866;2023-04-24T08:09:39;2.60;;;2.50;;
20177;SDS011;10248;51.218;20.866;2023-04-24T08:12:07;2.88;;;2.78;;
20177;SDS011;10248;51.218;20.866;2023-04-24T08:14:36;2.90;;;2.80;;
20177;SDS011;10248;51.218;20.866;2023-04-24T08:17:04;2.70;;;2.60;;
20177;SDS011;10248;51.218;20.866;2023-04-24T08:19:32;2.90;;;2.80;;
20177;SDS011;10248;51.218;20.866;2023-04-24T08:21:59;2.55;;;2.45;;
20177;SDS011;10248;51.218;20.866;2023-04-24T08:24:27;2.65;;;2.55;;
20177;SDS011;10248;51.218;20.866;2023-04-24T08:26:55;2.60;;;2.50;;
20177;SDS011;10248;51.218;20.866;2023-04-24T08:29:24;2.75;;;2.65;;
20177;SDS011;10248;51.218;20.866;2023-04-24T08:31:55;2.80;;;2.70;;
20177;SDS011;10248;51.218;20.866;2023-04-24T08:34:23;2.83;;;2.72;;
20177;SDS011;10248;51.218;20.866;2023-04-24T08:36:50;3.00;;;2.90;;
20177;SDS011;10248;51.218;20.866;2023-04-24T08:39:18;2.70;;;2.60;;
20177;SDS011;10248;51.218;20.866;2023-04-24T08:41:46;2.60;;;2.50;;
20177;SDS011;10248;51.218;20.866;2023-04-24T08:44:15;2.90;;;2.80;;
20177;SDS011;10248;51.218;20.866;2023-04-24T08:46:44;2.90;;;2.80;;
20177;SDS011;10248;51.218;20.866;2023-04-24T08:49:15;2.70;;;2.60;;
20177;SDS011;10248;51.218;20.866;2023-04-24T08:51:43;2.70;;;2.60;;
20177;SDS011;10248;51.218;20.866;2023-04-24T08:54:13;3.00;;;2.90;;
20177;SDS011;10248;51.218;20.866;2023-04-24T08:56:41;3.00;;;2.90;;
20177;SDS011;10248;51.218;20.866;2023-04-24T08:59:11;2.80;;;2.70;;
20177;SDS011;10248;51.218;20.866;2023-04-24T09:01:39;3.00;;;2.90;;
20177;SDS011;10248;51.218;20.866;2023-04-24T09:04:08;2.83;;;2.72;;
20177;SDS011;10248;51.218;20.866;2023-04-24T09:06:39;2.60;;;2.50;;
20177;SDS011;10248;51.218;20.866;2023-04-24T09:09:07;2.80;;;2.70;;
20177;SDS011;10248;51.218;20.866;2023-04-24T09:11:35;2.88;;;2.78;;
20177;SDS011;10248;51.218;20.866;2023-04-24T09:14:04;2.60;;;2.50;;
20177;SDS011;10248;51.218;20.866;2023-04-24T09:16:31;3.00;;;2.90;;
20177;SDS011;10248;51.218;20.866;2023-04-24T09:19:02;2.85;;;2.75;;
20177;SDS011;10248;51.218;20.866;2023-04-24T09:21:31;2.88;;;2.78;;
20177;SDS011;10248;51.218;20.866;2023-04-24T09:24:02;2.65;;;2.55;;
20177;SDS011;10248;51.218;20.866;2023-04-24T09:26:31;2.70;;;2.60;;
20177;SDS011;10248;51.218;20.866;2023-04-24T09:28:59;2.95;;;2.85;;
20177;SDS011;10248;51.218;20.866;2023-04-24T09:31:28;2.90;;;2.80;;
20177;SDS011;10248;51.218;20.866;2023-04-24T09:33:57;2.97;;;2.88;;
20177;SDS011;10248;51.218;20.866;2023-04-24T09:38:57;2.80;;;2.70;;
20177;SDS011;10248;51.218;20.866;2023-04-24T09:41:27;3.00;;;2.90;;
20177;SDS011;10248;51.218;20.866;2023-04-24T09:43:55;2.95;;;2.85;;
20177;SDS011;10248;51.218;20.866;2023-04-24T09:46:29;2.83;;;2.72;;
20177;SDS011;10248;51.218;20.866;2023-04-24T09:48:58;3.00;;;2.90;;
20177;SDS011;10248;51.218;20.866;2023-04-24T09:51:36;3.00;;;2.90;;
20177;SDS011;10248;51.218;20.866;2023-04-24T09:54:11;2.92;;;2.83;;
20177;SDS011;10248;51.218;20.866;2023-04-24T09:56:43;2.80;;;2.70;;
20177;SDS011;10248;51.218;20.866;2023-04-24T09:59:12;2.80;;;2.70;;
20177;SDS011;10248;51.218;20.866;2023-04-24T10:01:41;2.88;;;2.78;;
20177;SDS011;10248;51.218;20.866;2023-04-24T10:04:17;3.03;;;2.92;;
20177;SDS011;10248;51.218;20.866;2023-04-24T10:06:46;2.97;;;2.88;;
20177;SDS011;10248;51.218;20.866;2023-04-24T10:09:15;2.85;;;2.75;;
20177;SDS011;10248;51.218;20.866;2023-04-24T10:11:45;2.92;;;2.83;;
20177;SDS011;10248;51.218;20.866;2023-04-24T10:14:14;2.90;;;2.80;;
20177;SDS011;10248;51.218;20.866;2023-04-24T10:16:43;2.90;;;2.80;;
20177;SDS011;10248;51.218;20.866;2023-04-24T10:19:13;2.80;;;2.70;;
20177;SDS011;10248;51.218;20.866;2023-04-24T10:21:43;3.00;;;2.90;;
20177;SDS011;10248;51.218;20.866;2023-04-24T10:24:14;2.85;;;2.75;;
20177;SDS011;10248;51.218;20.866;2023-04-24T10:26:42;3.00;;;2.90;;
20177;SDS011;10248;51.218;20.866;2023-04-24T10:29:15;3.58;;;3.47;;
20177;SDS011;10248;51.218;20.866;2023-04-24T10:31:44;2.90;;;2.80;;
20177;SDS011;10248;51.218;20.866;2023-04-24T10:34:14;3.00;;;2.90;;
20177;SDS011;10248;51.218;20.866;2023-04-24T10:36:45;2.90;;;2.80;;
20177;SDS011;10248;51.218;20.866;2023-04-24T10:39:15;3.00;;;2.90;;
20177;SDS011;10248;51.218;20.866;2023-04-24T10:41:45;3.00;;;2.90;;
20177;SDS011;10248;51.218;20.866;2023-04-24T10:44:14;2.88;;;2.78;;
20177;SDS011;10248;51.218;20.866;2023-04-24T10:46:43;2.95;;;2.85;;
20177;SDS011;10248;51.218;20.866;2023-04-24T10:49:12;2.90;;;2.80;;
20177;SDS011;10248;51.218;20.866;2023-04-24T10:51:47;2.90;;;2.80;;
20177;SDS011;10248;51.218;20.866;2023-04-24T10:54:25;3.05;;;2.95;;
20177;SDS011;10248;51.218;20.866;2023-04-24T10:57:00;3.00;;;2.90;;
20177;SDS011;10248;51.218;20.866;2023-04-24T11:00:15;2.83;;;2.72;;
20177;SDS011;10248;51.218;20.866;2023-04-24T11:02:45;3.00;;;2.90;;
20177;SDS011;10248;51.218;20.866;2023-04-24T11:05:17;2.60;;;2.50;;
20177;SDS011;10248;51.218;20.866;2023-04-24T11:10:39;2.80;;;2.70;;
20177;SDS011;10248;51.218;20.866;2023-04-24T11:13:09;2.80;;;2.70;;
20177;SDS011;10248;51.218;20.866;2023-04-24T11:15:38;2.90;;;2.80;;
20177;SDS011;10248;51.218;20.866;2023-04-24T11:18:12;3.10;;;3.00;;
20177;SDS011;10248;51.218;20.866;2023-04-24T11:20:41;3.00;;;2.90;;
20177;SDS011;10248;51.218;20.866;2023-04-24T11:23:11;3.10;;;3.00;;
20177;SDS011;10248;51.218;20.866;2023-04-24T11:25:40;3.10;;;3.00;;
20177;SDS011;10248;51.218;20.866;2023-04-24T11:28:10;3.10;;;3.00;;
20177;SDS011;10248;51.218;20.866;2023-04-24T11:30:41;3.00;;;2.90;;
20177;SDS011;10248;51.218;20.866;2023-04-24T11:33:09;3.03;;;2.92;;
20177;SDS011;10248;51.218;20.866;2023-04-24T11:35:39;2.83;;;2.72;;
20177;SDS011;10248;51.218;20.866;2023-04-24T11:38:07;3.00;;;2.90;;
20177;SDS011;10248;51.218;20.866;2023-04-24T11:40:50;3.00;;;2.90;;
20177;SDS011;10248;51.218;20.866;2023-04-24T11:43:19;2.80;;;2.70;;
20177;SDS011;10248;51.218;20.866;2023-04-24T11:45:47;2.80;;;2.70;;
20177;SDS011;10248;51.218;20.866;2023-04-24T11:48:18;3.00;;;2.90;;
20177;SDS011;10248;51.218;20.866;2023-04-24T11:50:48;3.17;;;3.08;;
20177;SDS011;10248;51.218;20.866;2023-04-24T11:53:18;2.90;;;2.80;;
20177;SDS011;10248;51.218;20.866;2023-04-24T11:55:46;3.17;;;3.07;;
20177;SDS011;10248;51.218;20.866;2023-04-24T11:58:14;3.00;;;2.90;;
20177;SDS011;10248;51.218;20.866;2023-04-24T12:00:43;2.90;;;2.80;;
20177;SDS011;10248;51.218;20.866;2023-04-24T12:03:12;2.90;;;2.80;;
20177;SDS011;10248;51.218;20.866;2023-04-24T12:05:40;3.00;;;2.90;;
20177;SDS011;10248;51.218;20.866;2023-04-24T12:08:09;3.40;;;3.20;;
20177;SDS011;10248;51.218;20.866;2023-04-24T12:10:37;2.83;;;2.72;;
20177;SDS011;10248;51.218;20.866;2023-04-24T12:13:05;3.10;;;3.00;;
20177;SDS011;10248;51.218;20.866;2023-04-24T12:15:39;2.90;;;2.80;;
20177;SDS011;10248;51.218;20.866;2023-04-24T12:18:11;3.10;;;3.00;;
20177;SDS011;10248;51.218;20.866;2023-04-24T12:20:39;3.13;;;3.03;;
20177;SDS011;10248;51.218;20.866;2023-04-24T12:23:08;2.90;;;2.80;;
20177;SDS011;10248;51.218;20.866;2023-04-24T12:25:35;2.90;;;2.80;;
20177;SDS011;10248;51.218;20.866;2023-04-24T12:28:10;3.00;;;2.90;;
20177;SDS011;10248;51.218;20.866;2023-04-24T12:30:39;3.00;;;2.90;;
20177;SDS011;10248;51.218;20.866;2023-04-24T12:33:09;2.90;;;2.80;;
20177;SDS011;10248;51.218;20.866;2023-04-24T12:35:39;3.20;;;3.10;;
20177;SDS011;10248;51.218;20.866;2023-04-24T12:38:08;2.90;;;2.80;;
20177;SDS011;10248;51.218;20.866;2023-04-24T12:40:39;3.20;;;3.10;;
20177;SDS011;10248;51.218;20.866;2023-04-24T12:43:28;3.10;;;3.00;;
20177;SDS011;10248;51.218;20.866;2023-04-24T12:45:57;3.20;;;3.10;;
20177;SDS011;10248;51.218;20.866;2023-04-24T12:48:26;2.90;;;2.80;;
20177;SDS011;10248;51.218;20.866;2023-04-24T12:50:54;3.10;;;3.00;;
20177;SDS011;10248;51.218;20.866;2023-04-24T12:53:27;2.90;;;2.80;;
20177;SDS011;10248;51.218;20.866;2023-04-24T12:55:57;3.10;;;3.00;;
20177;SDS011;10248;51.218;20.866;2023-04-24T12:58:25;3.03;;;2.92;;
20177;SDS011;10248;51.218;20.866;2023-04-24T13:00:53;2.90;;;2.80;;
20177;SDS011;10248;51.218;20.866;2023-04-24T13:03:21;2.60;;;2.50;;
20177;SDS011;10248;51.218;20.866;2023-04-24T13:05:50;2.70;;;2.60;;
20177;SDS011;10248;51.218;20.866;2023-04-24T13:08:18;3.08;;;2.97;;
20177;SDS011;10248;51.218;20.866;2023-04-24T13:10:46;3.00;;;2.90;;
20177;SDS011;10248;51.218;20.866;2023-04-24T13:13:13;2.67;;;2.58;;
20177;SDS011;10248;51.218;20.866;2023-04-24T13:15:41;2.70;;;2.60;;
20177;SDS011;10248;51.218;20.866;2023-04-24T13:18:09;2.50;;;2.40;;
20177;SDS011;10248;51.218;20.866;2023-04-24T13:20:37;2.80;;;2.70;;
20177;SDS011;10248;51.218;20.866;2023-04-24T13:23:08;3.08;;;2.97;;
20177;SDS011;10248;51.218;20.866;2023-04-24T13:25:37;3.10;;;3.00;;
20177;SDS011;10248;51.218;20.866;2023-04-24T13:28:05;3.10;;;3.00;;
20177;SDS011;10248;51.218;20.866;2023-04-24T13:30:33;3.30;;;3.20;;
20177;SDS011;10248;51.218;20.866;2023-04-24T13:33:01;3.30;;;3.20;;
20177;SDS011;10248;51.218;20.866;2023-04-24T13:35:29;3.40;;;3.30;;
20177;SDS011;10248;51.218;20.866;2023-04-24T13:37:57;3.00;;;2.90;;
20177;SDS011;10248;51.218;20.866;2023-04-24T13:40:26;3.00;;;2.90;;
20177;SDS011;10248;51.218;20.866;2023-04-24T13:42:54;3.20;;;3.10;;
20177;SDS011;10248;51.218;20.866;2023-04-24T13:45:21;3.20;;;3.10;;
20177;SDS011;10248;51.218;20.866;2023-04-24T13:47:51;3.00;;;2.90;;
20177;SDS011;10248;51.218;20.866;2023-04-24T13:50:20;2.80;;;2.70;;
20177;SDS011;10248;51.218;20.866;2023-04-24T13:52:48;2.90;;;2.80;;
20177;SDS011;10248;51.218;20.866;2023-04-24T13:55:16;2.90;;;2.80;;
20177;SDS011;10248;51.218;20.866;2023-04-24T13:57:45;3.20;;;3.10;;
20177;SDS011;10248;51.218;20.866;2023-04-24T14:00:13;3.10;;;3.00;;
20177;SDS011;10248;51.218;20.866;2023-04-24T14:02:41;3.10;;;3.00;;
20177;SDS011;10248;51.218;20.866;2023-04-24T14:05:09;3.20;;;3.10;;
20177;SDS011;10248;51.218;20.866;2023-04-24T14:07:37;3.10;;;3.00;;
20177;SDS011;10248;51.218;20.866;2023-04-24T14:10:05;3.00;;;2.90;;
20177;SDS011;10248;51.218;20.866;2023-04-24T14:12:34;3.00;;;2.90;;
20177;SDS011;10248;51.218;20.866;2023-04-24T14:15:03;3.10;;;3.00;;
20177;SDS011;10248;51.218;20.866;2023-04-24T14:17:32;3.22;;;3.13;;
20177;SDS011;10248;51.218;20.866;2023-04-24T14:20:00;3.10;;;3.00;;
20177;SDS011;10248;51.218;20.866;2023-04-24T14:22:29;3.00;;;2.90;;
20177;SDS011;10248;51.218;20.866;2023-04-24T14:24:57;3.10;;;3.00;;
20177;SDS011;10248;51.218;20.866;2023-04-24T14:27:25;2.90;;;2.80;;
20177;SDS011;10248;51.218;20.866;2023-04-24T14:29:53;2.60;;;2.50;;
20177;SDS011;10248;51.218;20.866;2023-04-24T14:32:22;2.70;;;2.60;;
20177;SDS011;10248;51.218;20.866;2023-04-24T14:34:50;3.20;;;3.10;;
20177;SDS011;10248;51.218;20.866;2023-04-24T14:37:18;3.10;;;3.00;;
20177;SDS011;10248;51.218;20.866;2023-04-24T14:39:45;3.00;;;2.90;;
20177;SDS011;10248;51.218;20.866;2023-04-24T14:42:26;3.00;;;2.90;;
20177;SDS011;10248;51.218;20.866;2023-04-24T14:44:54;3.10;;;3.00;;
20177;SDS011;10248;51.218;20.866;2023-04-24T14:47:24;3.00;;;2.90;;
20177;SDS011;10248;51.218;20.866;2023-04-24T14:49:52;2.80;;;2.70;;
20177;SDS011;10248;51.218;20.866;2023-04-24T14:52:19;3.00;;;2.90;;
20177;SDS011;10248;51.218;20.866;2023-04-24T14:54:47;2.80;;;2.70;;
20177;SDS011;10248;51.218;20.866;2023-04-24T14:57:15;2.80;;;2.70;;
20177;SDS011;10248;51.218;20.866;2023-04-24T14:59:43;2.90;;;2.80;;
20177;SDS011;10248;51.218;20.866;2023-04-24T15:02:10;2.90;;;2.80;;
20177;SDS011;10248;51.218;20.866;2023-04-24T15:04:43;2.70;;;2.60;;
20177;SDS011;10248;51.218;20.866;2023-04-24T15:07:11;2.70;;;2.60;;
20177;SDS011;10248;51.218;20.866;2023-04-24T15:09:39;2.80;;;2.70;;
20177;SDS011;10248;51.218;20.866;2023-04-24T15:12:07;2.83;;;2.72;;
20177;SDS011;10248;51.218;20.866;2023-04-24T15:14:36;2.80;;;2.70;;
20177;SDS011;10248;51.218;20.866;2023-04-24T15:17:04;2.85;;;2.75;;
20177;SDS011;10248;51.218;20.866;2023-04-24T15:19:31;2.60;;;2.50;;
20177;SDS011;10248;51.218;20.866;2023-04-24T15:22:01;2.70;;;2.60;;
20177;SDS011;10248;51.218;20.866;2023-04-24T15:24:28;3.00;;;2.90;;
20177;SDS011;10248;51.218;20.866;2023-04-24T15:26:56;3.00;;;2.90;;
20177;SDS011;10248;51.218;20.866;2023-04-24T15:29:27;2.90;;;2.80;;
20177;SDS011;10248;51.218;20.866;2023-04-24T15:31:55;2.60;;;2.50;;
20177;SDS011;10248;51.218;20.866;2023-04-24T15:34:23;2.50;;;2.40;;
20177;SDS011;10248;51.218;20.866;2023-04-24T15:36:51;2.90;;;2.80;;
20177;SDS011;10248;51.218;20.866;2023-04-24T15:39:21;2.63;;;2.53;;
20177;SDS011;10248;51.218;20.866;2023-04-24T15:41:49;2.90;;;2.80;;
20177;SDS011;10248;51.218;20.866;2023-04-24T15:44:17;2.90;;;2.80;;
20177;SDS011;10248;51.218;20.866;2023-04-24T15:46:46;2.70;;;2.60;;